Time;durP1;ratioP1;P1;durP2;ratioP2;P2;SDS_P1;SDS_P2;PMS_P1;PMS_P2;Temp;Humidity;BMP_temperature;BMP_pressure;BME280_temperature;BME280_humidity;BME280_pressure;Samples;Min_cycle;Max_cycle;Signal;HPM_P1;HPM_P2
2021/10/25 00:00:44;;;;;;;41.70;20.10;;;;;;;1.39;66.85;100412.92;113602;1192;107497;-75
2021/10/25 00:03:14;;;;;;;37.70;18.00;;;;;;;1.38;67.08;100414.67;113484;1193;97565;-75
2021/10/25 00:05:42;;;;;;;43.10;19.90;;;;;;;1.37;67.20;100412.42;113533;1193;97757;-73
2021/10/25 00:08:13;;;;;;;38.50;17.20;;;;;;;1.36;67.44;100409.12;113380;1193;111177;-74
2021/10/25 00:10:43;;;;;;;35.80;16.70;;;;;;;1.34;67.46;100405.63;113523;1193;97795;-74
2021/10/25 00:13:11;;;;;;;36.90;18.10;;;;;;;1.32;67.52;100400.23;113512;1193;107640;-75
2021/10/25 00:15:39;;;;;;;41.10;18.60;;;;;;;1.30;67.58;100398.52;113480;1193;98283;-77
2021/10/25 00:18:12;;;;;;;40.40;17.80;;;;;;;1.28;67.73;100392.78;113788;1193;97521;-78
2021/10/25 00:20:41;;;;;;;46.50;18.20;;;;;;;1.27;67.65;100394.17;113367;1193;110492;-77
2021/10/25 00:23:11;;;;;;;36.20;16.50;;;;;;;1.27;67.50;100390.69;113440;1193;97573;-77
2021/10/25 00:25:40;;;;;;;37.80;16.50;;;;;;;1.27;67.62;100387.71;113623;1192;108425;-75
2021/10/25 00:28:10;;;;;;;35.80;16.60;;;;;;;1.29;67.61;100388.58;113630;1192;95459;-75
2021/10/25 00:30:38;;;;;;;35.90;16.20;;;;;;;1.30;67.69;100389.95;113543;1193;97615;-76
2021/10/25 00:33:06;;;;;;;34.80;16.60;;;;;;;1.31;67.67;100394.84;113508;1193;111447;-75
2021/10/25 00:35:34;;;;;;;36.50;17.30;;;;;;;1.30;67.79;100392.23;113663;1193;97559;-75
2021/10/25 00:38:03;;;;;;;36.00;17.90;;;;;;;1.30;67.89;100392.22;113628;1193;108012;-76
2021/10/25 00:40:31;;;;;;;33.90;15.10;;;;;;;1.29;67.96;100385.41;113343;1193;97809;-74
2021/10/25 00:42:59;;;;;;;34.30;15.90;;;;;;;1.29;67.64;100386.82;113491;1193;97606;-74
2021/10/25 00:45:27;;;;;;;37.50;15.50;;;;;;;1.31;67.61;100385.93;113592;1193;111155;-74
2021/10/25 00:47:57;;;;;;;34.00;15.60;;;;;;;1.29;67.94;100382.27;113643;1193;96231;-75
2021/10/25 00:50:27;;;;;;;33.40;14.80;;;;;;;1.29;68.18;100380.35;113368;1193;107608;-75
2021/10/25 00:52:55;;;;;;;34.10;15.30;;;;;;;1.25;67.95;100379.70;113366;1193;97784;-76
2021/10/25 00:55:23;;;;;;;32.80;15.40;;;;;;;1.22;68.04;100373.80;113481;1193;97556;-75
2021/10/25 00:57:52;;;;;;;33.80;15.30;;;;;;;1.19;68.22;100370.17;113486;1193;111167;-76
2021/10/25 01:00:22;;;;;;;32.90;16.20;;;;;;;1.17;68.34;100368.98;113452;1193;97525;-73
2021/10/25 01:02:51;;;;;;;32.50;14.60;;;;;;;1.14;68.37;100369.20;113381;1193;107524;-74
2021/10/25 01:05:21;;;;;;;31.90;14.30;;;;;;;1.12;68.67;100370.80;113823;1192;97583;-76
2021/10/25 01:07:53;;;;;;;30.80;13.90;;;;;;;1.09;68.57;100370.14;113613;1192;97649;-75
2021/10/25 01:10:24;;;;;;;28.30;13.60;;;;;;;1.08;68.66;100365.08;113454;1193;111096;-75
2021/10/25 01:12:55;;;;;;;35.70;15.20;;;;;;;1.06;68.52;100364.40;113412;1193;97650;-76
2021/10/25 01:15:26;;;;;;;30.40;14.30;;;;;;;1.05;68.52;100367.73;113519;1193;107240;-76
2021/10/25 01:18:00;;;;;;;32.30;14.60;;;;;;;1.06;68.29;100366.32;113545;1193;97551;-76
2021/10/25 01:20:32;;;;;;;29.00;13.10;;;;;;;1.07;68.40;100367.02;113552;1193;97674;-73
2021/10/25 01:23:00;;;;;;;28.20;12.80;;;;;;;1.08;68.30;100365.61;113556;1193;111124;-74
2021/10/25 01:25:31;;;;;;;32.60;14.80;;;;;;;1.09;68.48;100366.46;113598;1193;97563;-75
2021/10/25 01:28:02;;;;;;;32.10;13.40;;;;;;;1.06;68.54;100360.89;113568;1192;107529;-75
2021/10/25 01:30:30;;;;;;;31.70;14.20;;;;;;;1.06;68.50;100360.56;113530;1193;97674;-75
2021/10/25 01:32:58;;;;;;;30.10;13.90;;;;;;;1.05;68.61;100357.24;113552;1193;95019;-75
2021/10/25 01:35:28;;;;;;;28.50;12.50;;;;;;;1.04;68.40;100355.86;113508;1193;111106;-74
2021/10/25 01:37:57;;;;;;;26.90;11.80;;;;;;;1.05;68.35;100354.45;113557;1193;97693;-74
2021/10/25 01:40:26;;;;;;;27.80;13.00;;;;;;;1.07;68.27;100351.13;113558;1193;107454;-74
2021/10/25 01:42:57;;;;;;;29.70;13.20;;;;;;;1.08;68.34;100351.98;113441;1193;97659;-74
2021/10/25 01:45:25;;;;;;;28.20;12.90;;;;;;;1.08;68.52;100352.14;113574;1193;95040;-72
2021/10/25 01:47:57;;;;;;;31.10;12.90;;;;;;;1.08;68.72;100350.04;113529;1193;111231;-73
2021/10/25 01:50:28;;;;;;;27.10;13.10;;;;;;;1.09;68.43;100350.58;113576;1193;97725;-73
2021/10/25 01:53:00;;;;;;;29.50;12.80;;;;;;;1.08;68.32;100347.25;113444;1193;107376;-73
2021/10/25 01:55:28;;;;;;;32.00;13.80;;;;;;;1.07;68.44;100349.18;113428;1193;97567;-76
2021/10/25 01:57:56;;;;;;;27.30;12.20;;;;;;;1.06;68.48;100341.17;113546;1192;97693;-76
2021/10/25 02:00:27;;;;;;;29.20;12.40;;;;;;;1.06;68.32;100336.98;113552;1193;109467;-75
2021/10/25 02:02:54;;;;;;;30.40;12.80;;;;;;;1.04;68.35;100334.38;113476;1192;97670;-76
2021/10/25 02:05:22;;;;;;;29.50;13.10;;;;;;;1.02;68.27;100332.64;113430;1193;107513;-76
2021/10/25 02:07:50;;;;;;;30.30;13.20;;;;;;;1.03;68.53;100336.66;113435;1193;98249;-75
2021/10/25 02:10:18;;;;;;;28.50;12.50;;;;;;;1.03;68.35;100336.84;113469;1193;95048;-77
2021/10/25 02:12:46;;;;;;;28.50;12.90;;;;;;;1.03;68.42;100337.88;113440;1193;111215;-78
2021/10/25 02:15:14;;;;;;;32.90;14.40;;;;;;;1.02;68.41;100339.46;113416;1193;97747;-75
2021/10/25 02:17:42;;;;;;;26.60;11.10;;;;;;;1.03;68.29;100333.86;113392;1193;107442;-76
2021/10/25 02:20:10;;;;;;;27.00;12.60;;;;;;;1.03;68.73;100328.80;113369;1193;97700;-72
2021/10/25 02:22:38;;;;;;;25.90;11.40;;;;;;;1.01;68.48;100326.91;113489;1193;97534;-76
2021/10/25 02:25:08;;;;;;;24.60;11.80;;;;;;;0.98;68.45;100321.36;113384;1193;111197;-76
2021/10/25 02:27:36;;;;;;;27.90;12.60;;;;;;;0.97;68.72;100317.54;113446;1193;97372;-76
2021/10/25 02:30:04;;;;;;;29.60;13.80;;;;;;;0.96;68.67;100318.94;113451;1193;107580;-76
2021/10/25 02:32:32;;;;;;;29.90;12.70;;;;;;;0.93;68.68;100316.52;113453;1193;97633;-74
2021/10/25 02:35:00;;;;;;;27.20;12.10;;;;;;;0.90;68.55;100316.04;113470;1193;97654;-75
2021/10/25 02:37:35;;;;;;;27.90;12.00;;;;;;;0.86;68.73;100312.25;113436;1193;110878;-75
2021/10/25 02:40:05;;;;;;;27.40;11.90;;;;;;;0.83;68.82;100311.23;113488;1193;97607;-75
2021/10/25 02:42:33;;;;;;;28.10;13.30;;;;;;;0.82;68.68;100308.11;113429;1193;107513;-74
2021/10/25 02:45:03;;;;;;;25.30;10.80;;;;;;;0.80;68.80;100307.96;113471;1193;95100;-74
2021/10/25 02:47:31;;;;;;;25.50;11.90;;;;;;;0.79;68.75;100306.76;113480;1193;97597;-75
2021/10/25 02:50:04;;;;;;;27.20;12.90;;;;;;;0.76;68.88;100302.42;113470;1193;111072;-75
2021/10/25 02:52:32;;;;;;;28.50;11.10;;;;;;;0.74;68.92;100305.94;113502;1193;97569;-76
2021/10/25 02:55:00;;;;;;;26.30;11.00;;;;;;;0.72;68.96;100304.40;113451;1193;107546;-75
2021/10/25 02:57:32;;;;;;;30.30;13.30;;;;;;;0.70;68.78;100298.83;113424;1193;97596;-74
2021/10/25 03:00:00;;;;;;;29.00;12.30;;;;;;;0.69;68.85;100297.45;113429;1193;95171;-77
2021/10/25 03:02:28;;;;;;;29.00;12.60;;;;;;;0.67;68.90;100295.90;113552;1192;111264;-74
2021/10/25 03:05:01;;;;;;;24.60;11.10;;;;;;;0.67;68.80;100295.02;113876;1192;96042;-74
2021/10/25 03:07:29;;;;;;;28.70;11.60;;;;;;;0.67;68.77;100295.73;113351;1193;107549;-74
2021/10/25 03:09:58;;;;;;;28.10;12.00;;;;;;;0.66;68.97;100298.00;113725;1193;95488;-72
2021/10/25 03:12:28;;;;;;;27.10;10.90;;;;;;;0.64;69.07;100300.11;113436;1193;97520;-76
2021/10/25 03:14:55;;;;;;;25.90;10.80;;;;;;;0.63;68.85;100298.57;113787;1192;111155;-75
2021/10/25 03:17:24;;;;;;;27.30;11.20;;;;;;;0.59;68.84;100293.38;113902;1192;97635;-74
2021/10/25 03:19:55;;;;;;;27.40;11.00;;;;;;;0.57;68.89;100290.27;113835;1193;107514;-77
2021/10/25 03:22:25;;;;;;;23.70;10.30;;;;;;;0.55;69.03;100290.98;113918;1193;97525;-74
2021/10/25 03:24:58;;;;;;;23.50;9.60;;;;;;;0.54;69.10;100288.20;113848;1193;97644;-73
2021/10/25 03:27:27;;;;;;;25.20;10.60;;;;;;;0.51;69.25;100285.43;113678;1193;111762;-73
2021/10/25 03:29:56;;;;;;;25.40;11.00;;;;;;;0.48;69.26;100285.81;113566;1193;97648;-73
2021/10/25 03:32:27;;;;;;;26.80;10.90;;;;;;;0.46;69.42;100280.44;113454;1193;107491;-72
2021/10/25 03:34:55;;;;;;;24.80;10.80;;;;;;;0.43;69.18;100280.45;113581;1193;95418;-69
2021/10/25 03:37:23;;;;;;;24.00;10.00;;;;;;;0.42;69.40;100277.52;113615;1193;97651;-70
2021/10/25 03:39:54;;;;;;;25.20;11.00;;;;;;;0.40;69.07;100275.98;113886;1193;110435;-71
2021/10/25 03:42:31;;;;;;;25.90;10.80;;;;;;;0.40;69.10;100277.02;113861;1192;97621;-71
2021/10/25 03:45:16;;;;;;;23.00;10.10;;;;;;;0.43;69.21;100278.20;113623;1192;107530;-71
2021/10/25 03:50:18;;;;;;;25.80;9.90;;;;;;;0.47;69.13;100272.93;114444;1193;95679;-71
2021/10/25 04:29:08;;;;;;;26.70;11.40;;;;;;;0.46;69.01;100244.13;113657;1192;97666;-71
2021/10/25 04:31:01;;;;;;;27.40;11.10;;;;;;;0.44;69.12;100247.29;113391;1193;97672;-71
2021/10/25 04:33:29;;;;;;;26.30;10.40;;;;;;;0.43;69.27;100242.08;113479;1193;111167;-71
2021/10/25 04:35:57;;;;;;;23.40;10.60;;;;;;;0.44;69.11;100244.49;113413;1193;97701;-73
2021/10/25 04:38:25;;;;;;;23.50;10.30;;;;;;;0.47;69.15;100239.41;113338;1193;107246;-70
2021/10/25 04:40:55;;;;;;;26.10;10.10;;;;;;;0.49;69.18;100240.60;113409;1193;97699;-70
2021/10/25 04:43:26;;;;;;;26.60;11.70;;;;;;;0.52;69.13;100237.95;113338;1193;97596;-68
2021/10/25 04:45:53;;;;;;;24.70;10.00;;;;;;;0.56;69.38;100236.16;113426;1192;111694;-70
2021/10/25 04:48:21;;;;;;;26.50;9.90;;;;;;;0.60;69.13;100236.83;113909;1193;97584;-70
2021/10/25 04:50:49;;;;;;;23.70;9.70;;;;;;;0.61;69.00;100229.11;113847;1192;107878;-70
2021/10/25 04:53:17;;;;;;;27.00;10.80;;;;;;;0.63;69.22;100229.25;113765;1192;97918;-71
2021/10/25 04:55:45;;;;;;;24.30;9.90;;;;;;;0.65;69.26;100224.34;113910;1192;98266;-70
2021/10/25 04:58:13;;;;;;;25.80;10.70;;;;;;;0.68;69.20;100222.73;113934;1193;111567;-70
2021/10/25 05:00:44;;;;;;;24.90;9.40;;;;;;;0.71;69.37;100218.15;113802;1192;95385;-70
2021/10/25 05:03:11;;;;;;;23.60;8.50;;;;;;;0.75;69.31;100218.10;113419;1193;107448;-70
2021/10/25 05:05:45;;;;;;;25.90;9.60;;;;;;;0.78;69.30;100212.64;113498;1192;97521;-71
2021/10/25 05:08:13;;;;;;;24.30;10.00;;;;;;;0.80;69.10;100209.66;113521;1193;95019;-70
2021/10/25 05:10:46;;;;;;;25.40;9.80;;;;;;;0.82;69.28;100210.33;113474;1192;110721;-70
2021/10/25 05:13:14;;;;;;;25.50;10.50;;;;;;;0.83;69.29;100209.60;113498;1192;97617;-71
2021/10/25 05:15:42;;;;;;;25.50;10.10;;;;;;;0.83;69.14;100209.58;113414;1193;107506;-71
2021/10/25 05:18:13;;;;;;;25.70;10.50;;;;;;;0.85;69.30;100204.34;113511;1193;95077;-70
2021/10/25 05:20:43;;;;;;;25.80;10.70;;;;;;;0.88;69.08;100202.72;113471;1193;97641;-69
2021/10/25 05:23:11;;;;;;;24.40;10.30;;;;;;;0.90;69.18;100203.74;113430;1192;111062;-72
2021/10/25 05:25:40;;;;;;;24.20;9.90;;;;;;;0.92;69.29;100206.17;113531;1193;95714;-69
2021/10/25 05:28:11;;;;;;;24.80;9.80;;;;;;;0.93;69.25;100207.20;113469;1193;107590;-70
2021/10/25 05:30:39;;;;;;;23.80;9.20;;;;;;;0.94;69.25;100202.29;113400;1193;96574;-69
2021/10/25 05:33:11;;;;;;;23.60;10.10;;;;;;;0.96;69.07;100207.85;113415;1193;97550;-68
2021/10/25 05:35:39;;;;;;;26.00;10.00;;;;;;;0.98;69.07;100207.47;113443;1193;110788;-71
2021/10/25 05:38:12;;;;;;;25.50;10.10;;;;;;;1.00;69.19;100208.15;113513;1192;97678;-69
2021/10/25 05:40:42;;;;;;;24.00;9.60;;;;;;;1.02;69.33;100210.19;113386;1192;107533;-69
2021/10/25 05:43:13;;;;;;;23.20;9.80;;;;;;;1.06;69.12;100211.36;113454;1192;97512;-70
2021/10/25 05:45:41;;;;;;;23.40;10.10;;;;;;;1.10;69.14;100211.66;113456;1193;95071;-69
2021/10/25 05:48:11;;;;;;;27.60;11.00;;;;;;;1.13;69.08;100215.98;113411;1193;111149;-70
2021/10/25 05:50:39;;;;;;;28.90;11.00;;;;;;;1.15;69.07;100216.83;113428;1193;97613;-73
2021/10/25 05:53:08;;;;;;;24.90;10.70;;;;;;;1.17;69.20;100221.33;113504;1193;107527;-70
2021/10/25 05:55:42;;;;;;;27.00;12.10;;;;;;;1.19;69.02;100215.53;113397;1192;97632;-71
2021/10/25 05:58:18;;;;;;;25.90;10.00;;;;;;;1.22;68.92;100220.05;113377;1193;95035;-71
2021/10/25 06:00:58;;;;;;;23.70;11.00;;;;;;;1.23;69.25;100218.79;113439;1192;110906;-67
2021/10/25 06:03:32;;;;;;;25.90;11.70;;;;;;;1.20;68.84;100222.86;113866;1192;97551;-70
2021/10/25 06:06:03;;;;;;;27.60;12.00;;;;;;;1.17;69.09;100221.86;113449;1192;107520;-69
2021/10/25 06:08:33;;;;;;;38.30;19.00;;;;;;;1.15;68.98;100226.44;113494;1193;97619;-70
2021/10/25 06:11:04;;;;;;;49.90;24.90;;;;;;;1.15;69.09;100224.00;113545;1192;98759;-70
2021/10/25 06:13:37;;;;;;;68.20;29.80;;;;;;;1.15;68.92;100222.76;113497;1192;111771;-70
2021/10/25 06:18:41;;;;;;;70.90;35.30;;;;;;;1.15;68.90;100229.77;113837;1193;107517;-70
2021/10/25 06:21:12;;;;;;;70.50;37.50;;;;;;;1.13;69.02;100231.52;114729;1192;97548;-70
2021/10/25 06:23:39;;;;;;;81.30;46.20;;;;;;;1.11;69.00;100233.83;113445;1193;97587;-70
2021/10/25 06:26:10;;;;;;;73.20;41.30;;;;;;;1.10;68.82;100234.37;113473;1193;111159;-71
2021/10/25 06:28:38;;;;;;;75.30;38.50;;;;;;;1.12;69.31;100234.86;113548;1192;97578;-72
2021/10/25 06:31:08;;;;;;;72.60;40.30;;;;;;;1.14;68.93;100235.34;113420;1192;107598;-70
2021/10/25 06:33:46;;;;;;;68.90;37.10;;;;;;;1.15;68.95;100235.34;113518;1192;97648;-72
2021/10/25 06:36:21;;;;;;;77.90;41.00;;;;;;;1.15;69.03;100234.99;113533;1193;97554;-69
2021/10/25 06:41:19;;;;;;;80.70;43.20;;;;;;;1.16;69.03;100239.00;113404;1193;98135;-69
2021/10/25 06:43:51;;;;;;;82.30;47.00;;;;;;;1.17;69.04;100239.33;113357;1192;107550;-70
2021/10/25 06:46:20;;;;;;;81.70;46.70;;;;;;;1.18;69.10;100237.74;113780;1192;97654;-70
2021/10/25 06:48:50;;;;;;;78.20;44.10;;;;;;;1.21;69.20;100231.42;113825;1192;97622;-70
2021/10/25 06:51:18;;;;;;;81.70;41.10;;;;;;;1.25;69.05;100232.05;113671;1193;111259;-71
2021/10/25 06:53:49;;;;;;;76.10;42.10;;;;;;;1.29;69.21;100230.74;113855;1192;97671;-69
2021/10/25 06:56:19;;;;;;;75.60;40.80;;;;;;;1.33;69.12;100233.48;113781;1193;107560;-71
2021/10/25 06:58:47;;;;;;;79.60;41.20;;;;;;;1.38;69.00;100230.81;113869;1192;95125;-70
2021/10/25 07:01:18;;;;;;;89.80;45.60;;;;;;;1.42;69.11;100231.43;113831;1192;97537;-68
2021/10/25 07:03:49;;;;;;;80.70;42.20;;;;;;;1.46;69.03;100227.33;113814;1192;111229;-70
2021/10/25 07:06:17;;;;;;;87.40;43.50;;;;;;;1.51;69.14;100224.29;113849;1193;97662;-70
2021/10/25 07:08:47;;;;;;;79.00;41.20;;;;;;;1.56;69.42;100218.27;113531;1193;107626;-68
2021/10/25 07:11:19;;;;;;;76.20;41.10;;;;;;;1.63;69.19;100215.16;113726;1187;95042;-70
2021/10/25 07:13:50;;;;;;;82.50;43.10;;;;;;;1.70;69.19;100213.81;113840;1192;97664;-72
2021/10/25 07:16:26;;;;;;;79.30;39.80;;;;;;;1.77;69.50;100210.19;113432;1192;111169;-70
2021/10/25 07:27:21;;;;;;;86.20;44.40;;;;;;;2.13;69.47;100194.32;113261;1193;97722;-70
2021/10/25 08:06:21;;;;;;;17.60;6.80;;;;;;;4.56;69.65;100166.19;113452;1192;97673;-72
2021/10/25 08:11:15;;;;;;;18.00;6.80;;;;;;;4.82;69.66;100166.30;113522;1192;111151;-70
2021/10/25 08:14:06;;;;;;;20.90;7.10;;;;;;;4.96;69.52;100155.81;113413;1193;97648;-72
2021/10/25 08:16:43;;;;;;;17.60;6.30;;;;;;;5.09;69.56;100157.35;113529;1192;107516;-72
2021/10/25 08:19:24;;;;;;;16.40;6.20;;;;;;;5.23;69.65;100154.59;113396;1186;97528;-71
2021/10/25 08:22:01;;;;;;;18.70;6.10;;;;;;;5.43;69.77;100152.38;113566;1193;97622;-73
2021/10/25 08:24:38;;;;;;;19.60;6.40;;;;;;;5.65;69.41;100146.50;113437;1193;110954;-70
2021/10/25 08:27:09;;;;;;;18.80;6.30;;;;;;;5.87;69.44;100148.00;113473;1193;97650;-71
2021/10/25 08:29:40;;;;;;;20.90;7.30;;;;;;;6.11;69.27;100145.06;113328;1193;107324;-73
2021/10/25 08:32:44;;;;;;;17.10;5.70;;;;;;;6.41;68.95;100135.68;113528;1192;97562;-70
2021/10/25 08:40:38;;;;;;;15.20;5.40;;;;;;;7.69;68.79;100141.08;113491;1192;97582;-70
2021/10/25 08:43:09;;;;;;;15.60;5.40;;;;;;;8.11;68.91;100139.41;113487;1192;107537;-66
2021/10/25 08:45:38;;;;;;;16.80;5.50;;;;;;;8.54;68.65;100144.70;113481;1194;97619;-72
2021/10/25 08:48:09;;;;;;;15.60;4.70;;;;;;;9.00;68.78;100144.32;113372;1193;97561;-71
2021/10/25 08:50:39;;;;;;;12.10;3.90;;;;;;;9.44;68.39;100141.95;113453;1192;110678;-71
2021/10/25 08:53:09;;;;;;;10.70;4.20;;;;;;;9.81;67.56;100139.33;113387;1193;97605;-71
2021/10/25 08:55:44;;;;;;;13.40;4.50;;;;;;;10.28;67.49;100133.48;113312;1192;107477;-72
2021/10/25 08:58:15;;;;;;;15.30;4.80;;;;;;;10.74;67.79;100132.83;113436;1192;95052;-71
2021/10/25 09:00:52;;;;;;;12.90;4.50;;;;;;;11.21;67.70;100129.92;113399;1192;97652;-73
2021/10/25 09:03:22;;;;;;;17.00;5.00;;;;;;;11.61;67.09;100127.63;113448;1193;111197;-72
2021/10/25 09:05:54;;;;;;;10.50;4.20;;;;;;;11.95;66.97;100127.89;113809;1192;95540;-72
2021/10/25 09:08:23;;;;;;;13.00;4.00;;;;;;;12.48;66.99;100127.14;113875;1192;107492;-72
2021/10/25 09:10:52;;;;;;;15.60;5.20;;;;;;;13.19;67.11;100121.48;113693;1192;97639;-71
2021/10/25 09:13:29;;;;;;;14.80;4.70;;;;;;;14.00;66.29;100115.60;113675;1192;97974;-71
2021/10/25 09:16:03;;;;;;;12.00;4.10;;;;;;;14.55;64.86;100108.19;113387;1193;111373;-73
2021/10/25 09:18:40;;;;;;;13.60;3.90;;;;;;;14.92;65.08;100106.05;113578;1192;97667;-72
2021/10/25 09:21:13;;;;;;;10.80;4.30;;;;;;;15.19;65.11;100108.84;113494;1192;108499;-72
2021/10/25 09:23:50;;;;;;;11.50;4.00;;;;;;;15.25;64.21;100116.15;113527;1192;95055;-73
2021/10/25 09:26:29;;;;;;;12.00;4.60;;;;;;;14.97;63.00;100114.77;113461;1193;97582;-72
2021/10/25 09:29:03;;;;;;;14.30;4.90;;;;;;;14.81;63.77;100111.52;113542;1193;111181;-70
2021/10/25 09:31:34;;;;;;;14.20;4.60;;;;;;;14.78;62.61;100105.13;113766;1192;97551;-70
2021/10/25 09:34:10;;;;;;;16.20;5.10;;;;;;;14.54;60.71;100108.11;113764;1192;107641;-70
2021/10/25 09:36:51;;;;;;;10.80;4.00;;;;;;;14.26;60.44;100108.25;113508;1192;97499;-69
2021/10/25 09:39:27;;;;;;;14.80;4.60;;;;;;;14.01;59.93;100108.40;113817;1192;97556;-70
2021/10/25 09:42:15;;;;;;;9.80;4.00;;;;;;;13.95;60.51;100108.45;113501;1192;110669;-71
2021/10/25 09:50:25;;;;;;;11.30;3.30;;;;;;;14.11;60.17;100101.64;113645;1192;97622;-70
2021/10/25 09:52:53;;;;;;;9.40;3.20;;;;;;;14.16;59.55;100101.86;113890;1193;97591;-69
2021/10/25 09:55:21;;;;;;;9.60;3.30;;;;;;;14.21;59.46;100101.11;113820;1192;112042;-70
2021/10/25 09:58:15;;;;;;;10.50;3.90;;;;;;;14.14;56.69;100096.65;113839;1193;97529;-69
2021/10/25 10:00:47;;;;;;;9.30;3.50;;;;;;;13.99;57.16;100092.14;113570;1192;107476;-69
2021/10/25 10:03:16;;;;;;;12.00;3.40;;;;;;;13.97;56.99;100090.50;113406;1193;97683;-69
2021/10/25 10:05:50;;;;;;;10.90;3.10;;;;;;;14.00;57.07;100091.58;113682;1192;95013;-69
2021/10/25 10:08:20;;;;;;;9.70;3.20;;;;;;;14.06;57.05;100086.31;113756;1192;111127;-69
2021/10/25 10:10:52;;;;;;;9.00;2.90;;;;;;;14.14;57.15;100084.13;113410;1193;97654;-69
2021/10/25 10:13:23;;;;;;;7.90;2.70;;;;;;;14.21;56.23;100080.47;113746;1193;108055;-69
2021/10/25 10:15:54;;;;;;;8.20;2.80;;;;;;;14.27;56.51;100076.78;113840;1192;98239;-69
2021/10/25 10:18:30;;;;;;;9.70;3.00;;;;;;;14.31;54.73;100069.52;113792;1193;97689;-69
2021/10/25 10:21:03;;;;;;;10.30;3.40;;;;;;;14.27;54.67;100066.11;113519;1192;111309;-69
2021/10/25 10:23:32;;;;;;;13.00;3.40;;;;;;;14.20;53.88;100067.30;113503;1192;97691;-69
2021/10/25 10:26:04;;;;;;;6.80;2.80;;;;;;;14.18;54.54;100065.87;113527;1193;106517;-68
2021/10/25 10:28:40;;;;;;;7.80;2.70;;;;;;;14.25;54.49;100062.71;113401;1193;97673;-69
2021/10/25 10:31:15;;;;;;;11.30;3.40;;;;;;;14.37;54.57;100062.15;113443;1193;97669;-69
2021/10/25 10:33:51;;;;;;;12.00;3.20;;;;;;;14.45;53.65;100055.52;113420;1193;111236;-70
2021/10/25 10:36:32;;;;;;;10.80;3.60;;;;;;;14.49;53.98;100058.27;113556;1192;97695;-69
2021/10/25 10:39:09;;;;;;;10.90;3.70;;;;;;;14.55;53.90;100059.66;113366;1193;107534;-69
2021/10/25 10:41:41;;;;;;;12.50;3.50;;;;;;;14.62;53.94;100061.23;113590;1192;98318;-69
2021/10/25 10:44:20;;;;;;;11.20;3.10;;;;;;;14.68;53.52;100069.36;113486;1192;97559;-70
2021/10/25 10:46:57;;;;;;;10.90;3.00;;;;;;;14.73;53.13;100063.17;113425;1193;112026;-69
2021/10/25 10:49:42;;;;;;;10.80;3.60;;;;;;;14.82;52.96;100061.10;113579;1192;95702;-68
2021/10/25 10:52:44;;;;;;;11.60;3.90;;;;;;;14.83;51.49;100059.06;113563;1193;107459;-69
2021/10/25 10:55:14;;;;;;;12.30;3.90;;;;;;;14.70;50.77;100058.68;113553;1177;97675;-71
2021/10/25 10:58:12;;;;;;;11.50;3.60;;;;;;;14.56;50.85;100052.44;113602;1192;96127;-70
2021/10/25 11:00:53;;;;;;;12.90;4.00;;;;;;;14.51;50.62;100049.95;113499;1196;111172;-68
2021/10/25 11:03:24;;;;;;;13.30;4.50;;;;;;;14.37;48.99;100046.27;113546;1192;95039;-68
2021/10/25 11:06:10;;;;;;;16.50;4.70;;;;;;;14.26;49.48;100039.80;113520;1193;108144;-68
2021/10/25 11:08:49;;;;;;;14.50;4.70;;;;;;;14.30;50.08;100040.75;113345;1193;95376;-69
2021/10/25 11:11:21;;;;;;;19.00;6.20;;;;;;;14.36;49.02;100036.23;113382;1193;97661;-69
2021/10/25 11:13:56;;;;;;;14.10;4.20;;;;;;;14.28;48.24;100036.03;113594;1192;111260;-69
2021/10/25 11:19:06;;;;;;;13.30;4.20;;;;;;;14.17;47.85;100032.20;113453;1192;108157;-69
2021/10/25 11:21:48;;;;;;;12.60;3.40;;;;;;;14.09;48.33;100025.80;113339;1193;97629;-68
2021/10/25 11:24:24;;;;;;;10.90;3.50;;;;;;;14.13;48.80;100021.98;113399;1194;97758;-70
2021/10/25 11:26:57;;;;;;;14.70;4.50;;;;;;;14.23;48.87;100019.11;113391;1195;111728;-69
2021/10/25 11:29:31;;;;;;;12.90;3.90;;;;;;;14.30;48.56;100012.91;113418;1193;96526;-68
2021/10/25 11:32:06;;;;;;;12.20;3.70;;;;;;;14.33;48.09;100009.67;113353;1193;108221;-68
2021/10/25 11:34:54;;;;;;;9.70;3.00;;;;;;;14.32;47.81;100007.77;113420;1193;95109;-70
2021/10/25 11:37:23;;;;;;;11.80;3.80;;;;;;;14.32;48.18;99998.35;113508;1193;98328;-70
2021/10/25 11:40:06;;;;;;;10.40;3.60;;;;;;;14.34;47.73;99992.80;113545;1192;112390;-69
2021/10/25 11:42:42;;;;;;;9.40;2.90;;;;;;;14.36;47.27;99987.16;113610;1192;98013;-68
2021/10/25 11:45:14;;;;;;;12.20;3.60;;;;;;;14.31;46.13;99984.84;113298;1193;107369;-69
2021/10/25 11:47:49;;;;;;;9.80;3.40;;;;;;;14.23;46.83;99982.94;113346;1193;98239;-68
2021/10/25 11:50:23;;;;;;;7.80;2.90;;;;;;;14.20;46.58;99975.59;113395;1193;97638;-68
2021/10/25 11:52:59;;;;;;;9.90;3.00;;;;;;;14.15;46.07;99970.46;113390;1193;111111;-68
2021/10/25 11:55:35;;;;;;;8.40;3.40;;;;;;;14.12;45.97;99971.58;113274;1192;98270;-68
2021/10/25 11:58:10;;;;;;;9.70;3.40;;;;;;;14.04;45.42;99970.52;113328;1192;107592;-67
2021/10/25 12:00:43;;;;;;;9.70;3.60;;;;;;;13.95;45.10;99967.23;113459;1193;97722;-68
2021/10/25 12:03:16;;;;;;;12.30;2.90;;;;;;;13.91;45.17;99970.56;114580;1192;97550;-69
2021/10/25 12:05:48;;;;;;;10.20;3.30;;;;;;;13.88;44.56;99964.23;113518;1192;111838;-68
2021/10/25 12:08:17;;;;;;;15.10;4.50;;;;;;;13.80;43.57;99960.84;113524;1192;97597;-68
2021/10/25 12:10:48;;;;;;;14.70;4.80;;;;;;;13.72;43.97;99957.33;113288;1193;107214;-67
2021/10/25 12:13:18;;;;;;;13.00;4.10;;;;;;;13.71;44.53;99956.52;113375;1192;97656;-69
2021/10/25 12:15:57;;;;;;;11.40;3.30;;;;;;;13.72;43.98;99949.65;113340;1193;97667;-69
2021/10/25 12:18:28;;;;;;;13.70;3.60;;;;;;;13.70;44.38;99951.22;113263;1193;111240;-68
2021/10/25 12:21:10;;;;;;;8.60;3.40;;;;;;;13.69;44.40;99950.55;113282;1193;98360;-69
2021/10/25 12:23:50;;;;;;;12.70;4.00;;;;;;;13.72;44.26;99947.52;113392;1193;108072;-67
2021/10/25 12:26:21;;;;;;;11.10;3.70;;;;;;;13.74;44.69;99950.75;113271;1193;97593;-66
2021/10/25 12:28:52;;;;;;;11.00;3.70;;;;;;;13.83;44.84;99944.58;113432;1192;97626;-68
2021/10/25 12:31:22;;;;;;;15.00;4.00;;;;;;;13.94;44.42;99943.58;113591;1192;112544;-68
2021/10/25 12:34:01;;;;;;;13.80;3.60;;;;;;;13.91;43.45;99934.54;113657;1192;97672;-69
2021/10/25 12:36:42;;;;;;;21.40;7.70;;;;;;;13.79;43.27;99939.17;113468;1192;107344;-69
2021/10/25 12:39:16;;;;;;;31.00;12.00;;;;;;;13.68;43.57;99931.59;113365;1193;97647;-69
2021/10/25 12:41:59;;;;;;;21.50;6.90;;;;;;;13.65;43.67;99931.45;113407;1192;95023;-70
2021/10/25 12:44:43;;;;;;;15.50;4.50;;;;;;;13.65;43.28;99929.88;113399;1193;111175;-69
2021/10/25 12:47:24;;;;;;;12.10;4.20;;;;;;;13.63;43.10;99928.22;113461;1194;97702;-64
2021/10/25 12:49:58;;;;;;;11.30;3.70;;;;;;;13.58;43.25;99929.77;113350;1192;107534;-70
2021/10/25 12:52:33;;;;;;;16.40;5.10;;;;;;;13.58;43.48;99927.52;113629;1192;96170;-70
2021/10/25 12:55:04;;;;;;;18.60;5.10;;;;;;;13.59;43.37;99929.54;113650;1192;97556;-69
2021/10/25 12:57:39;;;;;;;14.60;4.30;;;;;;;13.58;43.33;99922.70;113406;1193;111671;-71
2021/10/25 13:00:11;;;;;;;15.70;4.80;;;;;;;13.57;43.10;99922.59;113453;1193;97566;-70
2021/10/25 13:02:39;;;;;;;16.20;3.80;;;;;;;13.54;43.31;99914.02;113621;1192;108171;-66
2021/10/25 13:05:15;;;;;;;12.00;3.90;;;;;;;13.55;43.28;99912.71;113647;1192;97547;-66
2021/10/25 13:07:55;;;;;;;15.60;4.00;;;;;;;13.55;42.82;99916.63;114145;1192;97568;-69
2021/10/25 13:10:26;;;;;;;11.50;4.00;;;;;;;13.53;43.30;99914.29;113395;1193;111088;-66
2021/10/25 13:12:58;;;;;;;10.90;3.80;;;;;;;13.58;43.51;99911.81;113606;1192;96173;-69
2021/10/25 13:15:29;;;;;;;11.00;3.20;;;;;;;13.65;43.24;99904.71;113634;1192;107124;-66